createdAt,value
2018-06-29T00:00:02.670Z,12.90
2018-06-29T00:02:31.284Z,13.00
2018-06-29T00:05:00.732Z,17.20
2018-06-29T00:07:29.458Z,12.87
2018-06-29T00:09:58.834Z,13.80
2018-06-29T00:12:27.523Z,13.67
2018-06-29T00:14:56.913Z,13.17
2018-06-29T00:17:25.567Z,11.60
2018-06-29T00:19:54.584Z,12.60
2018-06-29T00:22:23.506Z,14.03
2018-06-29T00:24:52.191Z,13.90
2018-06-29T00:27:20.851Z,14.50
2018-06-29T00:29:49.479Z,10.97
2018-06-29T00:32:18.295Z,12.50
2018-06-29T00:34:46.959Z,21.50
2018-06-29T00:37:15.725Z,18.20
2018-06-29T00:39:44.570Z,15.93
2018-06-29T00:42:13.859Z,15.33
2018-06-29T00:44:43.040Z,12.00
2018-06-29T00:47:11.918Z,11.00
2018-06-29T00:49:40.636Z,10.73
2018-06-29T00:52:09.261Z,11.20
2018-06-29T00:54:37.934Z,11.63
2018-06-29T00:57:07.036Z,10.90
2018-06-29T00:59:36.037Z,11.17
2018-06-29T01:02:04.743Z,12.30
2018-06-29T01:04:33.399Z,13.33
2018-06-29T01:07:02.173Z,13.60
2018-06-29T01:09:30.854Z,15.07
2018-06-29T01:11:59.751Z,14.63
2018-06-29T01:14:29.108Z,18.83
2018-06-29T01:16:57.878Z,18.10
2018-06-29T01:19:26.564Z,24.53
2018-06-29T01:21:55.384Z,23.27
2018-06-29T01:24:24.692Z,16.73
2018-06-29T01:26:54.042Z,20.03
2018-06-29T01:29:22.700Z,19.73
2018-06-29T01:31:51.353Z,17.97
2018-06-29T01:34:20.800Z,20.43
2018-06-29T01:36:49.492Z,18.13
2018-06-29T01:39:19.208Z,17.57
2018-06-29T01:41:47.835Z,20.03
2018-06-29T01:44:16.524Z,22.23
2018-06-29T01:46:45.375Z,15.90
2018-06-29T01:49:14.114Z,14.00
2018-06-29T01:51:42.811Z,15.77
2018-06-29T01:54:11.392Z,14.70
2018-06-29T01:56:40.247Z,17.27
2018-06-29T01:59:08.991Z,14.53
2018-06-29T02:01:37.705Z,14.70
2018-06-29T02:04:06.691Z,15.00
2018-06-29T02:06:35.576Z,14.20
2018-06-29T02:09:06.536Z,14.60
2018-06-29T02:11:35.136Z,16.13
2018-06-29T02:14:04.348Z,17.93
2018-06-29T02:16:33.203Z,17.07
2018-06-29T02:19:01.791Z,16.60
2018-06-29T02:21:30.458Z,16.70
2018-06-29T02:23:59.070Z,18.73
2018-06-29T02:26:27.722Z,15.40
2018-06-29T02:28:57.178Z,16.50
2018-06-29T02:31:25.835Z,16.70
2018-06-29T02:33:54.398Z,17.67
2018-06-29T02:36:23.803Z,16.53
2018-06-29T02:38:53.110Z,17.23
2018-06-29T02:41:21.751Z,20.93
2018-06-29T02:43:50.635Z,18.17
2018-06-29T02:46:19.473Z,18.10
2018-06-29T02:48:48.433Z,17.80
2018-06-29T02:51:17.098Z,19.33
2018-06-29T02:53:46.302Z,20.30
2018-06-29T02:56:15.294Z,13.10
2018-06-29T02:58:44.027Z,21.23
2018-06-29T03:01:13.454Z,15.90
2018-06-29T03:03:42.149Z,17.80
2018-06-29T03:06:10.983Z,16.00
2018-06-29T03:08:39.830Z,20.20
2018-06-29T03:11:08.634Z,17.00
2018-06-29T03:13:37.250Z,16.50
2018-06-29T03:16:05.973Z,16.00
2018-06-29T03:18:35.124Z,20.27
2018-06-29T03:21:04.932Z,19.40
2018-06-29T03:23:33.980Z,16.00
2018-06-29T03:26:02.774Z,20.87
2018-06-29T03:28:31.511Z,15.57
2018-06-29T03:31:00.201Z,14.77
2018-06-29T03:33:29.630Z,14.30
2018-06-29T03:35:58.264Z,14.20
2018-06-29T03:38:26.978Z,23.93
2018-06-29T03:40:55.749Z,14.87
2018-06-29T03:43:24.495Z,16.73
2018-06-29T03:45:53.728Z,15.63
2018-06-29T03:48:22.395Z,18.10
2018-06-29T03:50:51.371Z,16.30
2018-06-29T03:53:20.033Z,14.87
2018-06-29T03:55:48.697Z,14.70
2018-06-29T03:58:17.407Z,23.20
2018-06-29T04:00:46.101Z,17.03
2018-06-29T04:03:15.000Z,15.47
2018-06-29T04:05:43.769Z,14.23
2018-06-29T04:08:12.560Z,16.23
2018-06-29T04:10:41.362Z,15.97
2018-06-29T04:13:10.767Z,15.50
2018-06-29T04:15:39.380Z,16.63
2018-06-29T04:18:08.177Z,14.63
2018-06-29T04:20:36.853Z,18.33
2018-06-29T04:23:06.068Z,18.70
2018-06-29T04:25:34.833Z,18.10
2018-06-29T04:28:03.579Z,17.10
2018-06-29T04:30:32.476Z,16.30
2018-06-29T04:33:01.160Z,15.10
2018-06-29T04:35:29.878Z,15.67
2018-06-29T04:37:59.312Z,14.70
2018-06-29T04:40:32.037Z,13.40
2018-06-29T04:43:00.964Z,15.63
2018-06-29T04:45:29.675Z,17.93
2018-06-29T04:47:58.740Z,14.50
2018-06-29T04:50:27.562Z,15.23
2018-06-29T04:52:56.632Z,18.83
2018-06-29T04:55:25.251Z,13.30
2018-06-29T04:57:53.953Z,13.13
2018-06-29T05:00:24.311Z,14.40
2018-06-29T05:02:53.056Z,17.17
2018-06-29T05:05:22.297Z,16.00
2018-06-29T05:07:50.956Z,13.33
2018-06-29T05:10:20.320Z,17.53
2018-06-29T05:12:48.992Z,16.73
2018-06-29T05:15:18.703Z,16.53
2018-06-29T05:17:47.508Z,16.07
2018-06-29T05:20:16.462Z,17.77
2018-06-29T05:22:45.163Z,13.17
2018-06-29T05:25:13.782Z,13.70
2018-06-29T05:27:42.426Z,15.63
2018-06-29T05:30:11.580Z,15.07
2018-06-29T05:32:40.296Z,22.00
2018-06-29T05:35:09.010Z,13.97
2018-06-29T05:37:37.697Z,19.47
2018-06-29T05:40:06.594Z,16.73
2018-06-29T05:42:35.483Z,17.20
2018-06-29T05:45:04.174Z,20.97
2018-06-29T05:47:32.865Z,20.87
2018-06-29T05:50:01.601Z,21.40
2018-06-29T05:52:30.987Z,23.27
2018-06-29T05:54:59.736Z,15.00
2018-06-29T05:57:28.908Z,14.70
2018-06-29T05:59:58.579Z,15.30
2018-06-29T06:02:28.092Z,15.90
2018-06-29T06:04:56.801Z,17.07
2018-06-29T06:07:25.443Z,12.10
2018-06-29T06:09:54.264Z,17.20
2018-06-29T06:12:23.070Z,15.60
2018-06-29T06:14:51.759Z,16.03
2018-06-29T06:17:21.039Z,13.60
2018-06-29T06:20:00.864Z,16.83
2018-06-29T06:22:30.705Z,13.77
2018-06-29T06:25:00.264Z,15.70
2018-06-29T06:27:29.359Z,16.43
2018-06-29T06:29:58.880Z,18.00
2018-06-29T06:32:28.101Z,16.63
2018-06-29T06:34:56.851Z,16.70
2018-06-29T06:37:25.547Z,17.03
2018-06-29T06:39:55.313Z,16.83
2018-06-29T06:42:24.168Z,18.33
2018-06-29T06:44:52.827Z,17.23
2018-06-29T06:47:21.596Z,14.27
2018-06-29T06:49:51.382Z,14.73
2018-06-29T06:52:20.032Z,15.67
2018-06-29T06:54:48.773Z,15.33
2018-06-29T06:57:17.567Z,13.70
2018-06-29T06:59:46.537Z,16.20
2018-06-29T07:02:15.526Z,15.53
2018-06-29T07:04:45.906Z,14.33
2018-06-29T07:07:14.623Z,15.53
2018-06-29T07:09:43.769Z,16.60
2018-06-29T07:12:12.465Z,13.93
2018-06-29T07:14:41.127Z,14.10
2018-06-29T07:17:10.571Z,14.57
2018-06-29T07:19:39.270Z,12.83
2018-06-29T07:22:08.428Z,16.33
2018-06-29T07:24:38.169Z,14.03
2018-06-29T07:27:07.458Z,13.43
2018-06-29T07:29:37.197Z,14.00
2018-06-29T07:32:06.693Z,15.07
2018-06-29T07:34:36.257Z,12.23
2018-06-29T07:37:05.067Z,11.37
2018-06-29T07:39:34.676Z,11.87
2018-06-29T07:42:04.197Z,14.50
2018-06-29T07:44:33.316Z,12.17
2018-06-29T07:47:02.062Z,11.93
2018-06-29T07:49:31.626Z,11.80
2018-06-29T07:52:00.696Z,11.60
2018-06-29T07:54:29.820Z,11.17
2018-06-29T07:56:59.965Z,11.80
2018-06-29T07:59:28.719Z,12.10
2018-06-29T08:02:04.389Z,12.80
2018-06-29T08:04:33.694Z,12.60
2018-06-29T08:07:02.540Z,12.13
2018-06-29T08:09:31.264Z,12.20
2018-06-29T08:12:00.474Z,12.67
2018-06-29T08:14:30.487Z,12.87
2018-06-29T08:16:59.456Z,15.27
2018-06-29T08:19:28.234Z,12.87
2018-06-29T08:21:56.965Z,21.10
2018-06-29T08:24:25.897Z,18.03
2018-06-29T08:26:54.981Z,15.40
2018-06-29T08:29:24.214Z,16.10
2018-06-29T08:31:55.260Z,15.20
2018-06-29T08:34:24.436Z,14.90
2018-06-29T08:36:53.130Z,15.23
2018-06-29T08:39:21.831Z,12.63
2018-06-29T08:41:50.765Z,11.90
2018-06-29T08:44:19.638Z,11.50
2018-06-29T08:46:49.181Z,12.23
2018-06-29T08:49:17.905Z,11.43
2018-06-29T08:51:46.674Z,11.60
2018-06-29T08:54:15.871Z,12.00
2018-06-29T08:56:44.701Z,12.20
2018-06-29T08:59:13.771Z,11.70
2018-06-29T09:01:42.919Z,12.27
2018-06-29T09:04:12.127Z,11.90
2018-06-29T09:06:41.134Z,13.00
2018-06-29T09:09:10.171Z,12.57
2018-06-29T09:11:39.288Z,12.03
2018-06-29T09:14:08.058Z,15.13
2018-06-29T09:16:37.139Z,18.27
2018-06-29T09:19:06.043Z,13.70
2018-06-29T09:21:34.754Z,16.90
2018-06-29T09:24:03.690Z,15.30
2018-06-29T09:26:32.414Z,12.40
2018-06-29T09:29:01.815Z,14.30
2018-06-29T09:31:31.204Z,12.13
2018-06-29T09:33:59.912Z,11.00
2018-06-29T09:36:30.036Z,12.57
2018-06-29T09:38:59.103Z,11.70
2018-06-29T09:41:29.349Z,10.80
2018-06-29T09:43:58.380Z,10.90
2018-06-29T09:46:27.603Z,11.43
2018-06-29T09:48:56.329Z,11.20
2018-06-29T09:51:25.448Z,12.97
2018-06-29T09:53:54.663Z,10.57
2018-06-29T09:56:23.562Z,16.13
2018-06-29T09:58:52.610Z,12.50
2018-06-29T10:01:21.485Z,13.47
2018-06-29T10:03:51.337Z,13.30
2018-06-29T10:06:20.311Z,14.63
2018-06-29T10:08:49.051Z,12.23
2018-06-29T10:11:17.861Z,12.03
2018-06-29T10:13:47.814Z,12.57
2018-06-29T10:16:16.490Z,12.40
2018-06-29T10:18:45.869Z,12.10
2018-06-29T10:21:15.514Z,15.63
2018-06-29T10:23:44.241Z,12.07
2018-06-29T10:26:13.029Z,12.43
2018-06-29T10:28:42.095Z,19.43
2018-06-29T10:31:11.591Z,12.37
2018-06-29T10:33:40.514Z,11.60
2018-06-29T10:36:09.163Z,12.27
2018-06-29T10:38:37.988Z,11.87
2018-06-29T10:41:06.976Z,12.87
2018-06-29T10:43:35.674Z,11.43
2018-06-29T10:46:04.412Z,13.30
2018-06-29T10:48:34.046Z,16.23
2018-06-29T10:51:03.270Z,11.20
2018-06-29T10:53:32.655Z,14.20
2018-06-29T10:56:02.333Z,12.77
2018-06-29T10:58:30.999Z,10.67
2018-06-29T11:01:00.677Z,9.77
2018-06-29T11:03:29.505Z,11.47
2018-06-29T11:05:58.171Z,12.60
2018-06-29T11:08:28.002Z,11.70
2018-06-29T11:10:56.693Z,10.70
2018-06-29T11:13:27.196Z,10.93
2018-06-29T11:15:56.331Z,10.60
2018-06-29T11:18:25.405Z,10.50
2018-06-29T11:20:54.103Z,10.47
2018-06-29T11:23:22.851Z,11.10
2018-06-29T11:25:53.525Z,9.60
2018-06-29T11:28:22.450Z,10.93
2018-06-29T11:30:51.216Z,14.53
2018-06-29T11:33:20.731Z,10.40
2018-06-29T11:35:50.362Z,12.87
2018-06-29T11:38:19.231Z,11.30
2018-06-29T11:40:48.750Z,10.57
2018-06-29T11:43:17.375Z,11.40
2018-06-29T11:45:46.141Z,15.53
2018-06-29T11:48:15.566Z,11.53
2018-06-29T11:50:44.241Z,10.70
2018-06-29T11:53:12.938Z,12.30
2018-06-29T11:55:41.624Z,10.50
2018-06-29T11:58:10.335Z,10.93
2018-06-29T12:00:39.538Z,10.13
2018-06-29T12:03:09.105Z,11.67
2018-06-29T12:05:37.862Z,9.87
2018-06-29T12:08:07.634Z,10.10
2018-06-29T12:10:36.844Z,12.67
2018-06-29T12:13:05.757Z,11.60
2018-06-29T12:15:34.917Z,11.33
2018-06-29T12:18:03.680Z,12.30
2018-06-29T12:20:33.281Z,10.10
2018-06-29T12:23:03.467Z,10.03
2018-06-29T12:25:33.315Z,10.80
2018-06-29T12:28:03.565Z,9.77
2018-06-29T12:30:32.276Z,10.90
2018-06-29T12:33:00.966Z,11.30
2018-06-29T12:35:29.633Z,11.30
2018-06-29T12:37:58.598Z,10.00
2018-06-29T12:40:29.906Z,10.97
2018-06-29T12:42:59.259Z,10.00
2018-06-29T12:45:28.912Z,11.33
2018-06-29T12:47:57.772Z,10.00
2018-06-29T12:50:26.841Z,10.10
2018-06-29T12:52:56.354Z,9.90
2018-06-29T12:55:25.184Z,9.23
2018-06-29T12:57:54.076Z,8.83
2018-06-29T13:00:22.971Z,9.00
2018-06-29T13:02:52.659Z,9.83
2018-06-29T13:05:21.404Z,9.53
2018-06-29T13:07:50.369Z,10.00
2018-06-29T13:10:19.111Z,10.30
2018-06-29T13:12:47.825Z,9.30
2018-06-29T13:15:16.519Z,10.00
2018-06-29T13:17:45.899Z,10.50
2018-06-29T13:20:14.893Z,8.73
2018-06-29T13:22:43.651Z,9.13
2018-06-29T13:25:12.734Z,9.13
2018-06-29T13:27:41.905Z,12.63
2018-06-29T13:30:10.624Z,9.60
2018-06-29T13:32:39.514Z,8.30
2018-06-29T13:35:08.806Z,12.20
2018-06-29T13:37:38.542Z,9.10
2018-06-29T13:40:07.360Z,9.47
2018-06-29T13:42:37.693Z,8.13
2018-06-29T13:45:06.358Z,8.50
2018-06-29T13:47:36.106Z,10.47
2018-06-29T13:50:06.020Z,8.00
2018-06-29T13:52:35.035Z,9.73
2018-06-29T13:55:05.251Z,11.40
2018-06-29T13:57:34.039Z,8.10
2018-06-29T14:00:03.719Z,7.30
2018-06-29T14:02:33.591Z,9.37
2018-06-29T14:05:02.313Z,7.10
2018-06-29T14:07:32.487Z,8.63
2018-06-29T14:10:01.594Z,7.90
2018-06-29T14:12:31.600Z,7.10
2018-06-29T14:15:01.335Z,7.20
2018-06-29T14:17:30.439Z,7.30
2018-06-29T14:19:59.440Z,7.60
2018-06-29T14:22:30.698Z,8.10
2018-06-29T14:25:00.165Z,6.77
2018-06-29T14:27:29.595Z,7.50
2018-06-29T14:29:58.369Z,8.60
2018-06-29T14:32:27.238Z,10.73
2018-06-29T14:34:56.192Z,8.47
2018-06-29T14:37:24.838Z,8.20
2018-06-29T14:39:53.615Z,8.27
2018-06-29T14:42:22.366Z,8.73
2018-06-29T14:44:51.449Z,7.50
2018-06-29T14:47:20.166Z,9.20
2018-06-29T14:49:48.848Z,9.03
2018-06-29T14:52:17.565Z,8.23
2018-06-29T14:54:47.047Z,8.43
2018-06-29T14:57:16.383Z,10.27
2018-06-29T14:59:45.897Z,7.73
2018-06-29T15:02:14.543Z,7.57
2018-06-29T15:04:43.204Z,7.87
2018-06-29T15:07:12.626Z,7.67
2018-06-29T15:09:42.371Z,9.13
2018-06-29T15:12:11.245Z,8.13
2018-06-29T15:14:40.147Z,8.07
2018-06-29T15:17:09.502Z,8.10
2018-06-29T15:19:38.172Z,7.37
2018-06-29T15:22:06.917Z,8.53
2018-06-29T15:24:35.892Z,9.43
2018-06-29T15:27:05.113Z,11.13
2018-06-29T15:29:33.819Z,8.27
2018-06-29T15:32:02.527Z,8.10
2018-06-29T15:34:31.890Z,8.03
2018-06-29T15:37:00.521Z,8.30
2018-06-29T15:39:29.730Z,7.03
2018-06-29T15:41:58.440Z,7.63
2018-06-29T15:44:27.106Z,7.60
2018-06-29T15:46:56.438Z,9.10
2018-06-29T15:49:25.159Z,9.87
2018-06-29T15:51:53.994Z,7.77
2018-06-29T15:54:23.416Z,8.50
2018-06-29T15:56:52.036Z,7.97
2018-06-29T15:59:20.861Z,8.50
2018-06-29T16:01:49.887Z,7.40
2018-06-29T16:04:18.613Z,8.40
2018-06-29T16:06:47.661Z,7.20
2018-06-29T16:09:16.355Z,8.60
2018-06-29T16:11:45.078Z,9.47
2018-06-29T16:14:13.804Z,8.63
2018-06-29T16:16:42.532Z,9.13
2018-06-29T16:19:11.231Z,9.60
2018-06-29T16:21:41.832Z,9.80
2018-06-29T16:24:10.550Z,8.77
2018-06-29T16:26:39.198Z,8.50
2018-06-29T16:29:07.935Z,8.50
2018-06-29T16:31:36.757Z,9.80
2018-06-29T16:34:06.072Z,10.37
2018-06-29T16:36:34.657Z,8.83
2018-06-29T16:39:05.084Z,9.67
2018-06-29T16:41:33.889Z,8.50
2018-06-29T16:44:02.473Z,8.60
2018-06-29T16:46:31.211Z,9.13
2018-06-29T16:48:59.900Z,9.07
2018-06-29T16:51:29.425Z,8.73
2018-06-29T16:53:58.707Z,8.63
2018-06-29T16:56:27.358Z,8.83
2018-06-29T16:58:56.010Z,9.17
2018-06-29T17:01:24.881Z,11.30
2018-06-29T17:03:53.652Z,9.30
2018-06-29T17:06:22.458Z,9.23
2018-06-29T17:08:51.160Z,9.03
2018-06-29T17:11:19.797Z,11.60
2018-06-29T17:13:48.736Z,10.40
2018-06-29T17:16:17.412Z,9.60
2018-06-29T17:18:47.279Z,10.50
2018-06-29T17:21:16.029Z,8.83
2018-06-29T17:23:44.838Z,10.23
2018-06-29T17:26:14.014Z,11.13
2018-06-29T17:28:42.956Z,11.73
2018-06-29T17:31:11.726Z,9.00
2018-06-29T17:33:40.687Z,11.20
2018-06-29T17:36:10.609Z,9.37
2018-06-29T17:38:40.778Z,10.30
2018-06-29T17:41:10.257Z,9.93
2018-06-29T17:43:39.009Z,10.00
2018-06-29T17:46:08.666Z,9.90
2018-06-29T17:48:37.583Z,9.83
2018-06-29T17:51:07.123Z,10.00
2018-06-29T17:53:36.010Z,9.90
2018-06-29T17:56:04.956Z,10.03
2018-06-29T17:58:34.288Z,10.27
2018-06-29T18:01:02.992Z,10.73
2018-06-29T18:03:32.428Z,10.43
2018-06-29T18:06:01.769Z,10.17
2018-06-29T18:08:30.452Z,9.20
2018-06-29T18:10:59.151Z,9.80
2018-06-29T18:13:27.905Z,9.60
2018-06-29T18:15:56.978Z,11.40
2018-06-29T18:18:25.810Z,9.53
2018-06-29T18:20:54.794Z,9.30
2018-06-29T18:23:23.810Z,9.37
2018-06-29T18:25:52.511Z,9.57
2018-06-29T18:28:21.877Z,10.27
2018-06-29T18:30:50.782Z,9.33
2018-06-29T18:33:19.443Z,8.70
2018-06-29T18:35:49.744Z,9.13
2018-06-29T18:38:18.696Z,16.20
2018-06-29T18:40:47.440Z,12.87
2018-06-29T18:43:16.154Z,10.00
2018-06-29T18:45:45.890Z,10.23
2018-06-29T18:48:14.859Z,10.70
2018-06-29T18:50:45.792Z,10.10
2018-06-29T18:53:16.382Z,9.37
2018-06-29T18:55:46.916Z,9.30
2018-06-29T18:58:15.765Z,9.50
2018-06-29T19:00:45.231Z,10.90
2018-06-29T19:03:14.820Z,8.97
2018-06-29T19:05:45.181Z,9.80
2018-06-29T19:08:13.879Z,10.50
2018-06-29T19:10:42.550Z,10.40
2018-06-29T19:13:11.345Z,9.60
2018-06-29T19:15:41.405Z,9.93
2018-06-29T19:18:13.997Z,9.10
2018-06-29T19:20:43.734Z,11.03
2018-06-29T19:23:12.389Z,10.10
2018-06-29T19:25:46.225Z,11.20
2018-06-29T19:28:17.919Z,13.03
2018-06-29T19:30:50.169Z,11.53
2018-06-29T19:33:20.850Z,14.67
2018-06-29T19:35:56.081Z,12.60
2018-06-29T19:38:31.314Z,14.20
2018-06-29T19:41:03.910Z,21.27
2018-06-29T19:43:34.645Z,12.53
2018-06-29T19:46:06.967Z,13.47
2018-06-29T19:48:38.984Z,11.27
2018-06-29T19:51:11.071Z,13.60
2018-06-29T19:53:41.414Z,13.23
2018-06-29T19:56:13.377Z,13.20
2018-06-29T19:58:44.485Z,17.90
2018-06-29T20:01:15.979Z,16.43
2018-06-29T20:03:48.090Z,13.37
2018-06-29T20:06:21.304Z,11.83
2018-06-29T20:08:53.604Z,14.10
2018-06-29T20:11:25.669Z,12.77
2018-06-29T20:13:56.600Z,14.47
2018-06-29T20:16:27.554Z,17.57
2018-06-29T20:19:02.335Z,13.77
2018-06-29T20:21:34.086Z,12.80
2018-06-29T20:24:05.731Z,14.40
2018-06-29T20:26:40.870Z,15.27
2018-06-29T20:29:12.955Z,12.67
2018-06-29T20:31:45.393Z,17.20
2018-06-29T20:34:16.696Z,12.53
2018-06-29T20:36:51.634Z,14.33
2018-06-29T20:39:25.488Z,15.93
2018-06-29T20:42:01.233Z,13.83
2018-06-29T20:44:32.297Z,14.27
2018-06-29T20:47:07.489Z,17.37
2018-06-29T20:49:38.717Z,16.40
2018-06-29T20:52:13.903Z,17.23
2018-06-29T20:54:46.784Z,20.07
2018-06-29T20:57:17.802Z,22.03
2018-06-29T20:59:49.265Z,21.17
2018-06-29T21:02:20.544Z,17.37
2018-06-29T21:04:54.575Z,15.60
2018-06-29T21:07:25.235Z,15.20
2018-06-29T21:10:03.836Z,20.63
2018-06-29T21:12:40.276Z,18.33
2018-06-29T21:15:12.709Z,15.60
2018-06-29T21:17:43.609Z,15.03
2018-06-29T21:20:18.055Z,16.17
2018-06-29T21:22:50.205Z,14.10
2018-06-29T21:25:22.003Z,19.40
2018-06-29T21:27:52.824Z,16.33
2018-06-29T21:30:23.984Z,15.70
2018-06-29T21:32:55.274Z,16.27
2018-06-29T21:35:25.952Z,16.23
2018-06-29T21:37:58.693Z,19.80
2018-06-29T21:40:30.734Z,17.33
2018-06-29T21:43:02.278Z,16.63
2018-06-29T21:45:35.467Z,16.20
2018-06-29T21:48:07.108Z,15.37
2018-06-29T21:50:38.489Z,20.70
2018-06-29T21:53:09.837Z,17.90
2018-06-29T21:55:41.029Z,17.60
2018-06-29T21:58:11.602Z,17.90
2018-06-29T22:00:45.890Z,18.90
2018-06-29T22:03:15.004Z,20.60
2018-06-29T22:05:44.184Z,16.70
2018-06-29T22:08:13.261Z,18.50
2018-06-29T22:10:42.075Z,17.40
2018-06-29T22:13:11.090Z,16.13
2018-06-29T22:15:39.906Z,18.60
2018-06-29T22:18:09.252Z,16.13
2018-06-29T22:20:37.963Z,19.13
2018-06-29T22:23:06.660Z,17.10
2018-06-29T22:25:35.961Z,17.23
2018-06-29T22:28:05.708Z,17.40
2018-06-29T22:30:35.838Z,18.03
2018-06-29T22:33:04.543Z,18.50
2018-06-29T22:35:34.384Z,17.60
2018-06-29T22:38:03.286Z,19.83
2018-06-29T22:40:32.063Z,21.80
2018-06-29T22:43:00.779Z,24.07
2018-06-29T22:45:29.467Z,24.13
2018-06-29T22:47:58.135Z,24.17
2018-06-29T22:50:26.845Z,20.93
2018-06-29T22:52:55.490Z,21.00
2018-06-29T22:55:24.196Z,20.77
2018-06-29T22:57:52.856Z,19.47
2018-06-29T23:00:21.622Z,20.30
2018-06-29T23:02:50.344Z,20.23
2018-06-29T23:05:19.259Z,18.30
2018-06-29T23:07:48.578Z,19.10
2018-06-29T23:10:17.955Z,18.37
2018-06-29T23:12:46.640Z,19.00
2018-06-29T23:15:15.316Z,19.97
2018-06-29T23:17:44.188Z,16.57
2018-06-29T23:20:13.129Z,20.30
2018-06-29T23:22:41.821Z,19.00
2018-06-29T23:25:10.468Z,17.20
2018-06-29T23:27:39.077Z,18.20
2018-06-29T23:30:07.924Z,17.70
2018-06-29T23:32:36.927Z,21.93
2018-06-29T23:35:05.848Z,22.27
2018-06-29T23:37:34.772Z,20.80
2018-06-29T23:40:03.550Z,19.50
2018-06-29T23:42:32.200Z,21.83
2018-06-29T23:45:01.213Z,25.10
2018-06-29T23:47:30.444Z,22.57
2018-06-29T23:49:59.512Z,26.80
2018-06-29T23:52:28.261Z,29.00
2018-06-29T23:54:57.505Z,44.97
2018-06-29T23:57:26.162Z,42.50
2018-06-29T23:59:55.101Z,35.07
